createdAt,value
2019-05-10T00:02:55.152Z,97528.63
2019-05-10T00:08:18.238Z,97520.47
2019-05-10T00:13:25.705Z,97534.16
2019-05-10T00:18:30.992Z,97538.83
2019-05-10T00:23:36.224Z,97546.14
2019-05-10T00:28:41.512Z,97554.09
2019-05-10T00:33:46.830Z,97551.25
2019-05-10T00:38:52.072Z,97544.39
2019-05-10T00:43:59.870Z,97548.59
2019-05-10T00:49:05.523Z,97550.36
2019-05-10T00:54:10.775Z,97551.09
2019-05-10T00:59:16.399Z,97551.81
2019-05-10T01:04:21.733Z,97557.94
2019-05-10T01:09:26.951Z,97552.83
2019-05-10T01:14:32.224Z,97551.51
2019-05-10T01:19:37.439Z,97550.02
2019-05-10T01:24:42.891Z,97557.70
2019-05-10T01:29:48.158Z,97565.06
2019-05-10T01:34:53.489Z,97566.77
2019-05-10T01:39:58.765Z,97572.52
2019-05-10T01:45:03.984Z,97571.56
2019-05-10T01:50:09.280Z,97578.30
2019-05-10T01:55:14.856Z,97578.85
2019-05-10T02:00:20.471Z,97577.23
2019-05-10T02:05:25.820Z,97575.90
2019-05-10T02:10:31.227Z,97588.58
2019-05-10T02:15:36.584Z,97591.66
2019-05-10T02:20:42.146Z,97590.61
2019-05-10T02:25:47.476Z,97588.83
2019-05-10T02:30:52.721Z,97597.33
2019-05-10T02:35:57.973Z,97600.09
2019-05-10T02:41:03.212Z,97610.44
2019-05-10T02:46:08.752Z,97607.09
2019-05-10T02:51:13.967Z,97606.52
2019-05-10T02:56:30.444Z,97611.42
2019-05-10T03:01:30.670Z,97610.38
2019-05-10T03:06:36.637Z,97619.40
2019-05-10T03:11:49.624Z,97614.37
2019-05-10T03:16:55.257Z,97628.70
2019-05-10T03:22:06.475Z,97622.56
2019-05-10T03:27:12.631Z,97636.20
2019-05-10T03:32:17.938Z,97635.00
2019-05-10T03:37:23.250Z,97644.10
2019-05-10T03:42:28.891Z,97646.24
2019-05-10T03:47:34.654Z,97649.69
2019-05-10T03:52:39.873Z,97652.75
2019-05-10T03:57:45.161Z,97654.76
2019-05-10T04:02:50.767Z,97659.89
2019-05-10T04:07:56.003Z,97672.03
2019-05-10T04:13:01.240Z,97664.70
2019-05-10T04:18:06.531Z,97674.50
2019-05-10T04:23:11.766Z,97687.28
2019-05-10T04:28:17.309Z,97690.36
2019-05-10T04:33:22.614Z,97689.61
2019-05-10T04:38:27.870Z,97698.28
2019-05-10T04:43:33.177Z,97699.28
2019-05-10T04:48:38.775Z,97702.69
2019-05-10T04:53:44.053Z,97705.16
2019-05-10T04:58:49.373Z,97713.55
2019-05-10T05:03:55.564Z,97715.34
2019-05-10T05:09:00.790Z,97723.61
2019-05-10T05:14:09.461Z,97722.97
2019-05-10T05:19:13.548Z,97732.34
2019-05-10T05:24:22.868Z,97731.60
2019-05-10T05:29:26.097Z,97731.60
2019-05-10T05:34:32.264Z,97738.46
2019-05-10T05:39:37.766Z,97745.27
2019-05-10T05:44:43.004Z,97753.11
2019-05-10T05:49:48.264Z,97750.45
2019-05-10T05:54:57.445Z,97758.81
2019-05-10T06:00:04.119Z,97767.24
2019-05-10T06:05:07.584Z,97774.52
2019-05-10T06:10:17.339Z,97770.09
2019-05-10T06:15:23.142Z,97773.09
2019-05-10T06:20:26.878Z,97779.03
2019-05-10T06:25:39.257Z,97778.43
2019-05-10T06:30:39.065Z,97776.53
2019-05-10T06:35:44.426Z,97784.17
2019-05-10T06:40:49.670Z,97784.17
2019-05-10T06:45:55.843Z,97788.27
2019-05-10T06:51:03.078Z,97785.81
2019-05-10T06:56:08.389Z,97791.16
2019-05-10T07:01:13.941Z,97800.98
2019-05-10T07:06:19.302Z,97792.16
2019-05-10T07:11:24.535Z,97789.27
2019-05-10T07:16:29.997Z,97799.69
2019-05-10T07:21:38.982Z,97804.91
2019-05-10T07:26:43.482Z,97808.63
2019-05-10T07:31:48.827Z,97819.22
2019-05-10T07:36:54.417Z,97823.30
2019-05-10T07:42:00.273Z,97830.00
2019-05-10T07:47:06.834Z,97829.13
2019-05-10T07:52:12.081Z,97847.42
2019-05-10T07:57:18.514Z,97847.15
2019-05-10T08:02:24.617Z,97849.16
2019-05-10T08:07:29.847Z,97859.37
2019-05-10T08:12:41.528Z,97860.88
2019-05-10T08:17:45.561Z,97873.89
2019-05-10T08:22:49.859Z,97859.00
2019-05-10T08:27:55.536Z,97870.80
2019-05-10T08:33:09.119Z,97872.45
2019-05-10T08:38:07.925Z,97882.50
2019-05-10T08:43:16.672Z,97894.39
2019-05-10T08:48:20.071Z,97894.07
2019-05-10T08:53:25.432Z,97896.27
2019-05-10T08:58:32.456Z,97900.80
2019-05-10T09:03:37.677Z,97904.32
2019-05-10T09:08:43.360Z,97898.01
2019-05-10T09:13:49.919Z,97908.32
2019-05-10T09:18:55.413Z,97917.47
2019-05-10T09:24:04.885Z,97917.84
2019-05-10T09:29:08.369Z,97908.23
2019-05-10T09:34:13.617Z,97922.61
2019-05-10T09:39:24.310Z,97918.13
2019-05-10T09:44:25.906Z,97936.66
2019-05-10T09:49:33.251Z,97934.17
2019-05-10T09:54:38.261Z,97936.39
2019-05-10T09:59:43.424Z,97951.84
2019-05-10T10:04:48.733Z,97966.09
2019-05-10T10:09:54.022Z,97964.58
2019-05-10T10:15:00.658Z,97965.05
2019-05-10T10:20:08.424Z,97970.80
2019-05-10T10:25:13.533Z,97973.81
2019-05-10T10:30:21.538Z,97961.68
2019-05-10T10:35:27.606Z,97960.69
2019-05-10T10:40:35.385Z,97960.23
2019-05-10T10:45:40.017Z,97951.61
2019-05-10T10:50:51.231Z,97952.00
2019-05-10T10:55:54.267Z,97945.09
2019-05-10T11:00:59.268Z,97936.38
2019-05-10T11:06:05.054Z,97934.06
2019-05-10T11:11:10.643Z,97935.42
2019-05-10T11:16:16.020Z,97935.50
2019-05-10T11:21:23.328Z,97926.97
2019-05-10T11:26:32.803Z,97922.12
2019-05-10T11:31:35.260Z,97922.83
2019-05-10T11:36:45.782Z,97914.36
2019-05-10T11:41:53.105Z,97917.38
2019-05-10T11:46:54.423Z,97925.27
2019-05-10T11:52:01.680Z,97917.73
2019-05-10T11:57:12.829Z,97924.66
2019-05-10T12:02:33.792Z,97914.33
2019-05-10T12:07:26.850Z,97918.86
2019-05-10T12:12:45.279Z,97920.36
2019-05-10T12:17:35.758Z,97909.55
2019-05-10T12:22:47.206Z,97918.70
2019-05-10T12:27:51.460Z,97913.91
2019-05-10T12:32:57.143Z,97913.60
2019-05-10T12:38:03.225Z,97919.95
2019-05-10T12:43:10.745Z,97918.48
2019-05-10T12:48:16.529Z,97904.33
2019-05-10T12:53:21.761Z,97912.13
2019-05-10T12:58:27.040Z,97909.80
2019-05-10T13:04:54.380Z,97918.94
2019-05-10T13:10:03.987Z,97923.46
2019-05-10T13:15:17.400Z,97935.80
2019-05-10T13:20:24.248Z,97938.62
2019-05-10T13:25:29.798Z,97941.88
2019-05-10T13:30:35.045Z,97941.89
2019-05-10T13:35:40.276Z,97944.42
2019-05-10T13:40:47.832Z,97934.77
2019-05-10T13:45:53.526Z,97939.87
2019-05-10T13:51:00.484Z,97942.23
2019-05-10T13:56:05.792Z,97946.38
2019-05-10T14:01:13.216Z,97940.22
2019-05-10T14:06:18.390Z,97943.08
2019-05-10T14:11:23.954Z,97934.13
2019-05-10T14:16:29.450Z,97946.53
2019-05-10T14:21:34.785Z,97948.17
2019-05-10T14:26:40.053Z,97949.00
2019-05-10T14:31:45.295Z,97956.35
2019-05-10T14:36:50.721Z,97956.84
2019-05-10T14:41:57.326Z,97955.98
2019-05-10T14:47:05.823Z,97962.34
2019-05-10T14:52:11.818Z,97972.86
2019-05-10T14:57:17.183Z,97968.91
2019-05-10T15:02:24.926Z,97967.16
2019-05-10T15:07:29.908Z,97970.41
2019-05-10T15:12:35.357Z,97976.55
2019-05-10T15:17:40.797Z,97981.84
2019-05-10T15:22:46.201Z,97994.53
2019-05-10T15:27:54.711Z,97998.14
2019-05-10T15:32:59.053Z,98000.98
2019-05-10T15:38:04.730Z,97994.52
2019-05-10T15:43:16.696Z,97995.94
2019-05-10T15:48:17.781Z,97995.86
2019-05-10T15:53:25.459Z,97989.82
2019-05-10T15:59:23.775Z,97986.09
2019-05-10T16:03:37.061Z,97990.52
2019-05-10T16:08:42.984Z,97998.36
2019-05-10T16:13:48.193Z,97994.48
2019-05-10T16:18:53.413Z,97988.81
2019-05-10T16:23:58.972Z,97994.19
2019-05-10T16:29:04.206Z,97995.48
2019-05-10T16:34:09.527Z,97996.23
2019-05-10T16:39:14.759Z,98004.73
2019-05-10T16:44:21.031Z,98003.33
2019-05-10T16:49:26.579Z,98005.11
2019-05-10T16:54:31.938Z,98003.31
2019-05-10T16:59:37.605Z,98007.13
2019-05-10T17:04:42.946Z,98002.80
2019-05-10T17:09:52.816Z,97990.96
2019-05-10T17:14:56.510Z,97979.62
2019-05-10T17:20:07.339Z,97980.36
2019-05-10T17:30:27.769Z,97984.78
2019-05-10T17:35:36.529Z,97993.55
2019-05-10T17:40:42.299Z,97973.20
2019-05-10T17:45:47.186Z,97961.98
2019-05-10T17:50:52.479Z,97961.75
2019-05-10T17:56:02.557Z,97961.55
2019-05-10T18:01:04.812Z,97973.44
2019-05-10T18:06:22.974Z,97979.76
2019-05-10T18:11:17.737Z,97983.93
2019-05-10T18:16:23.297Z,97994.42
2019-05-10T18:21:28.510Z,97998.97
2019-05-10T18:26:39.064Z,97991.61
2019-05-10T18:31:41.364Z,97990.16
2019-05-10T18:36:51.657Z,98008.33
2019-05-10T18:41:53.891Z,98032.68
2019-05-10T18:46:59.292Z,98028.04
2019-05-10T18:52:06.626Z,98035.09
2019-05-10T18:57:18.769Z,98042.66
2019-05-10T19:02:19.984Z,98022.52
2019-05-10T19:07:26.054Z,98025.67
2019-05-10T19:12:31.597Z,98027.97
2019-05-10T19:17:40.324Z,98033.94
2019-05-10T19:22:44.289Z,98026.53
2019-05-10T19:27:50.777Z,98030.34
2019-05-10T19:32:58.086Z,98046.61
2019-05-10T19:38:03.491Z,98056.41
2019-05-10T19:43:08.834Z,98063.94
2019-05-10T19:48:14.195Z,98062.75
2019-05-10T19:53:19.439Z,98062.72
2019-05-10T19:58:26.609Z,98065.05
2019-05-10T20:03:33.183Z,98077.72
2019-05-10T20:08:38.424Z,98056.03
2019-05-10T20:13:44.536Z,98060.58
2019-05-10T20:18:49.870Z,98072.16
2019-05-10T20:23:55.422Z,98075.61
2019-05-10T20:29:00.756Z,98071.95
2019-05-10T20:34:05.993Z,98071.95
2019-05-10T20:39:11.451Z,98067.80
2019-05-10T20:44:18.370Z,98050.08
2019-05-10T20:49:23.647Z,98063.42
2019-05-10T20:54:31.073Z,98070.59
2019-05-10T20:59:36.927Z,98078.48
2019-05-10T21:04:42.697Z,98080.73
2019-05-10T21:09:48.025Z,98085.27
2019-05-10T21:14:54.659Z,98087.87
2019-05-10T21:20:00.851Z,98076.97
2019-05-10T21:25:06.904Z,98076.83
2019-05-10T21:30:12.611Z,98065.28
2019-05-10T21:35:17.872Z,98058.77
2019-05-10T21:40:23.386Z,98046.11
2019-05-10T21:45:28.722Z,98033.29
2019-05-10T21:50:37.305Z,98033.33
2019-05-10T21:55:43.728Z,98017.43
2019-05-10T22:00:54.457Z,98023.94
2019-05-10T22:06:01.725Z,98018.25
2019-05-10T22:11:07.041Z,98014.41
2019-05-10T22:16:12.908Z,98004.58
2019-05-10T22:21:18.264Z,98018.09
2019-05-10T22:26:23.638Z,98013.66
2019-05-10T22:31:29.153Z,98007.25
2019-05-10T22:36:35.039Z,98013.11
2019-05-10T22:41:40.387Z,98018.49
2019-05-10T22:46:45.970Z,98015.52
2019-05-10T22:51:51.711Z,98018.94
2019-05-10T22:56:57.550Z,98010.52
2019-05-10T23:02:03.469Z,98008.48
2019-05-10T23:07:10.466Z,97986.32
2019-05-10T23:12:15.825Z,97987.38
2019-05-10T23:17:21.089Z,97987.30
2019-05-10T23:22:26.395Z,97979.55
2019-05-10T23:27:32.133Z,97971.94
2019-05-10T23:32:37.488Z,97956.39
2019-05-10T23:37:45.087Z,97962.88
2019-05-10T23:42:50.381Z,97956.84
2019-05-10T23:47:56.899Z,97955.78
2019-05-10T23:53:02.257Z,97937.09
2019-05-10T23:58:07.527Z,97937.13
